Skip Navigation LinksHome page > Tools > METAR decoder Skip Navigation Links

METAR decoder

Settings

METAR

Chicago O'Hare Intl, Chicago

For information only: do not use for flight planning or navigation.
Latest weather
Observation time Saturday, November 22, 2014 2:51 PM CST
Local time Saturday, November 22, 2014 2:58 PM CST
Flight conditions Marginal Visual Meteorological Conditions
Winds
Wind direction South-Southwest (200°)
Wind speed 10 mph
Visibility 10 mi.
Sky condition
Ceiling 2,900 ft. broken clouds
Cloud layer scattered clouds 1,800 ft.
Cloud layer broken clouds 2,900 ft.
Cloud layer overcast 4,500 ft.
Temperature 48°F
Dewpoint 43°F
Altimeter 29.86 in.Hg
Pressure change last 3 hours0.07 in.Hg
Pressure falling more slowly
Derived measurements
Relative humidity 83%
Wind chill 43°F
Density altitude 144 ft.
Sea-level pressure 29.87 in.Hg
Remarks
Automated weather observing station with precipitation discriminator.
METAR KORD 222051Z 20009KT 10SM SCT018 BKN029 OVC045 09/06 A2986 RMK AO2 SLP116 T00890061 56023

InnerDrive.Weather 4.0.5399.0 Release CLR 4.0.30319.34014
Copyright ©2014 Inner Drive Technology. All rights reserved. Portions Copyright ©1986-2014 David Braverman.

Find weather

Site navigation


Skip Navigation Links

Place info

Page info

PayPal - The safer, easier way to pay online!

Return home.

Copyright ©2014 Inner Drive Technology. Purveyors of fine, hand-crafted computer software. Page printed 2014-11-22T20:58:03 UTC.